Emerald Leader — C6WP4 — position and weather

sailwx.info

Track history (hours):
 
Tides and Currents Weather Stations Pressure Air Temp Water Temp Dewpoint Dewpoint Depression Visibility Wind Speed Wind Dir Waves Ship Positions

Emerald Leader

Last reported at 2016-Apr-29 07:31 UTC. Time now 2016-Apr-29 08:19 UTC.
Position N 51°19' E 003°14'.

Length 176 m; draft 8 m.

Type: Cargo ship. MMSI: 308688000.

Date/timePositionNaut miles runAvg speedWind from/ knotsBaromVisibWave heightAir tempDewpointWater temp
2016-Apr-29 07:31N 51°19' E 003°14'0 0.0
2016-Apr-29 06:31N 51°19' E 003°14'0 0.0
2016-Apr-29 05:31N 51°19' E 003°14'0 0.0
2016-Apr-29 04:28N 51°19' E 003°14'0 0.0
2016-Apr-29 03:31N 51°19' E 003°14'0 0.0
2016-Apr-29 02:31N 51°19' E 003°14'0 0.0
2016-Apr-29 01:28N 51°19' E 003°14'0 0.0
2016-Apr-29 00:13N 51°19' E 003°14'0 0.0
2016-Apr-28 23:25N 51°19' E 003°14'0 0.0
2016-Apr-28 22:28N 51°19' E 003°14'0 0.4
2016-Apr-28 21:33N 51°18' E 003°14'0 0.0
2016-Apr-28 20:27N 51°18' E 003°14'0 0.0
2016-Apr-28 19:33N 51°18' E 003°14'0 0.0
2016-Apr-28 18:33N 51°18' E 003°14'0 0.0
2016-Apr-28 17:33N 51°18' E 003°14'0 0.0
2016-Apr-28 16:15N 51°18' E 003°14'0 0.0
2016-Apr-28 15:30N 51°18' E 003°14'0 0.0
2016-Apr-28 14:33N 51°18' E 003°14'0 0.0
2016-Apr-28 13:30N 51°18' E 003°14'0 0.0
2016-Apr-28 12:33N 51°18' E 003°14'2 1.6
2016-Apr-28 11:33N 51°20' E 003°13'0 0.2
2016-Apr-28 10:29N 51°20' E 003°13'4 4.8
2016-Apr-28 09:33N 51°24' E 003°12'1110.9
2016-Apr-28 08:33N 51°25' E 003°29'8 7.4
2016-Apr-28 07:32N 51°28' E 003°41'0 0.0
2016-Apr-28 06:32N 51°28' E 003°41'0 0.0
2016-Apr-28 05:32N 51°28' E 003°41'0 0.0
2016-Apr-28 04:32N 51°28' E 003°41'0 0.0
2016-Apr-28 03:32N 51°28' E 003°41'0 0.1
2016-Apr-28 02:34N 51°27' E 003°41'7 7.0
2016-Apr-28 01:34N 51°29' E 003°30'1211.7
2016-Apr-28 00:34N 51°39' E 003°19'7 7.3
2016-Apr-27 23:33N 51°44' E 003°11'125 8.4
2016-Apr-27 08:33N 53°32' E 004°57'1413.8
2016-Apr-27 07:34N 53°37' E 005°18'1514.8
2016-Apr-27 06:34N 53°42' E 005°42'1615.9
2016-Apr-27 05:33N 53°47' E 006°07'1616.3
2016-Apr-27 04:33N 53°52' E 006°34'1616.2
2016-Apr-27 03:33N 53°55' E 007°01'1615.6
2016-Apr-27 02:34N 53°58' E 007°27'1212.0
2016-Apr-27 01:34N 53°53' E 007°45'1414.3
2016-Apr-27 00:34N 53°48' E 008°08'1414.2
2016-Apr-26 23:33N 53°39' E 008°25'7 7.0
2016-Apr-26 22:33N 53°33' E 008°34'1 1.0
2016-Apr-26 21:28N 53°34' E 008°34'0 0.0
2016-Apr-26 20:31N 53°34' E 008°34'0 0.0
2016-Apr-26 19:31N 53°34' E 008°34'0 0.0
2016-Apr-26 18:31N 53°34' E 008°34'0 0.0
2016-Apr-26 17:31N 53°34' E 008°34'0 0.0
2016-Apr-26 16:31N 53°34' E 008°34'0 0.0
2016-Apr-26 15:31N 53°34' E 008°34'0 0.0
2016-Apr-26 14:31N 53°34' E 008°34'0 0.0
2016-Apr-26 13:31N 53°34' E 008°34'0 0.0
2016-Apr-26 12:31N 53°34' E 008°34'0 0.0
2016-Apr-26 11:31N 53°34' E 008°34'0 0.0
2016-Apr-26 10:28N 53°34' E 008°34'0 0.0
2016-Apr-26 09:31N 53°34' E 008°34'0 0.0
2016-Apr-26 08:31N 53°34' E 008°34'0 0.0
2016-Apr-26 07:31N 53°34' E 008°34'0 0.0
2016-Apr-26 06:31N 53°34' E 008°34'0 0.0
2016-Apr-26 05:31N 53°34' E 008°34'0 0.0
2016-Apr-26 04:28N 53°34' E 008°34'0 0.0
2016-Apr-26 03:31N 53°34' E 008°34'0 0.5
2016-Apr-26 02:33N 53°34' E 008°33'3 2.6
2016-Apr-26 01:33N 53°36' E 008°30'1615.9
2016-Apr-26 00:34N 53°46' E 008°10'1313.2
2016-Apr-25 23:33N 53°52' E 007°50'1312.6
2016-Apr-25 22:33N 53°56' E 007°29'1010.0
2016-Apr-25 21:33N 54°03' E 007°18'0 0.2
2016-Apr-25 20:33N 54°03' E 007°18'1 0.9
2016-Apr-25 19:33N 54°03' E 007°17'1 0.9
2016-Apr-25 18:33N 54°02' E 007°16'1 0.7
2016-Apr-25 17:33N 54°02' E 007°15'1 0.5
2016-Apr-25 16:33N 54°02' E 007°15'2 1.5
2016-Apr-25 15:33N 54°04' E 007°16'0 0.2
2016-Apr-25 14:33N 54°04' E 007°16'1 0.7
2016-Apr-25 13:33N 54°03' E 007°15'9 9.1
2016-Apr-25 12:34N 53°54' E 007°18'1616.1
2016-Apr-25 11:34N 53°50' E 006°52'1616.2
2016-Apr-25 10:33N 53°46' E 006°25'1616.1
2016-Apr-25 09:33N 53°41' E 005°59'1616.2
2016-Apr-25 08:34N 53°35' E 005°34'1616.4
2016-Apr-25 07:33N 53°30' E 005°08'3315.5
2016-Apr-25 05:24N 53°06' E 004°28'1516.6
2016-Apr-25 04:30N 52°53' E 004°17'1716.3
2016-Apr-25 03:29N 52°40' E 003°60'9813.9
2016-Apr-24 20:29N 51°28' E 002°13'1213.4
2016-Apr-24 19:33N 51°16' E 002°06'1515.0
2016-Apr-24 18:34N 51°07' E 001°47'1414.4
2016-Apr-24 17:33N 50°57' E 001°30'5413.5
2016-Apr-24 13:34N 50°22' E 000°25'1614.8
2016-Apr-24 12:31N 50°17' E 000°02'11117.3
2016-Apr-24 06:04N 49°51' W 002°46'915.9
2016-Apr-24 05:32N 49°48' W 002°59'1515.4
2016-Apr-24 04:34N 49°41' W 003°20'  
2016-Apr-21 13:28N 39°43' W 009°50'1415.1
2016-Apr-21 12:33N 39°29' W 009°52'1515.4
2016-Apr-21 11:33N 39°14' W 009°52'1515.4
2016-Apr-21 10:33N 38°58' W 009°52'1515.3
2016-Apr-21 09:33N 38°43' W 009°52'1514.9
2016-Apr-21 08:33N 38°28' W 009°48'1514.5
2016-Apr-21 07:33N 38°14' W 009°43'1515.0
2016-Apr-21 06:33N 37°59' W 009°39'1514.9
2016-Apr-21 05:33N 37°45' W 009°35'22112.9
2016-Apr-20 12:27N 35°59' W 005°33'1111.9
2016-Apr-20 11:34N 36°02' W 005°20'  
Track history (hours):
 
Tides and Currents Weather Stations Pressure Air Temp Water Temp Dewpoint Dewpoint Depression Visibility Wind Speed Wind Dir Waves Ship Positions

Emerald Leader

Last reported at 2016-Apr-29 07:31 UTC. Time now 2016-Apr-29 08:19 UTC.
Position N 51°19' E 003°14'.

Length 176 m; draft 8 m.

Type: Cargo ship. MMSI: 308688000.

Date/timePositionNaut miles runAvg speedWind from/ knotsBaromVisibWave heightAir tempDewpointWater temp
2016-Apr-29 07:31N 51°19' E 003°14'0 0.0
2016-Apr-29 06:31N 51°19' E 003°14'0 0.0
2016-Apr-29 05:31N 51°19' E 003°14'0 0.0
2016-Apr-29 04:28N 51°19' E 003°14'0 0.0
2016-Apr-29 03:31N 51°19' E 003°14'0 0.0
2016-Apr-29 02:31N 51°19' E 003°14'0 0.0
2016-Apr-29 01:28N 51°19' E 003°14'0 0.0
2016-Apr-29 00:13N 51°19' E 003°14'0 0.0
2016-Apr-28 23:25N 51°19' E 003°14'0 0.0
2016-Apr-28 22:28N 51°19' E 003°14'0 0.4
2016-Apr-28 21:33N 51°18' E 003°14'0 0.0
2016-Apr-28 20:27N 51°18' E 003°14'0 0.0
2016-Apr-28 19:33N 51°18' E 003°14'0 0.0
2016-Apr-28 18:33N 51°18' E 003°14'0 0.0
2016-Apr-28 17:33N 51°18' E 003°14'0 0.0
2016-Apr-28 16:15N 51°18' E 003°14'0 0.0
2016-Apr-28 15:30N 51°18' E 003°14'0 0.0
2016-Apr-28 14:33N 51°18' E 003°14'0 0.0
2016-Apr-28 13:30N 51°18' E 003°14'0 0.0
2016-Apr-28 12:33N 51°18' E 003°14'2 1.6
2016-Apr-28 11:33N 51°20' E 003°13'0 0.2
2016-Apr-28 10:29N 51°20' E 003°13'4 4.8
2016-Apr-28 09:33N 51°24' E 003°12'1110.9
2016-Apr-28 08:33N 51°25' E 003°29'8 7.4
2016-Apr-28 07:32N 51°28' E 003°41'0 0.0
2016-Apr-28 06:32N 51°28' E 003°41'0 0.0
2016-Apr-28 05:32N 51°28' E 003°41'0 0.0
2016-Apr-28 04:32N 51°28' E 003°41'0 0.0
2016-Apr-28 03:32N 51°28' E 003°41'0 0.1
2016-Apr-28 02:34N 51°27' E 003°41'7 7.0
2016-Apr-28 01:34N 51°29' E 003°30'1211.7
2016-Apr-28 00:34N 51°39' E 003°19'7 7.3
2016-Apr-27 23:33N 51°44' E 003°11'125 8.4
2016-Apr-27 08:33N 53°32' E 004°57'1413.8
2016-Apr-27 07:34N 53°37' E 005°18'1514.8
2016-Apr-27 06:34N 53°42' E 005°42'1615.9
2016-Apr-27 05:33N 53°47' E 006°07'1616.3
2016-Apr-27 04:33N 53°52' E 006°34'1616.2
2016-Apr-27 03:33N 53°55' E 007°01'1615.6
2016-Apr-27 02:34N 53°58' E 007°27'1212.0
2016-Apr-27 01:34N 53°53' E 007°45'1414.3
2016-Apr-27 00:34N 53°48' E 008°08'1414.2
2016-Apr-26 23:33N 53°39' E 008°25'7 7.0
2016-Apr-26 22:33N 53°33' E 008°34'1 1.0
2016-Apr-26 21:28N 53°34' E 008°34'0 0.0
2016-Apr-26 20:31N 53°34' E 008°34'0 0.0
2016-Apr-26 19:31N 53°34' E 008°34'0 0.0
2016-Apr-26 18:31N 53°34' E 008°34'0 0.0
2016-Apr-26 17:31N 53°34' E 008°34'0 0.0
2016-Apr-26 16:31N 53°34' E 008°34'0 0.0
2016-Apr-26 15:31N 53°34' E 008°34'0 0.0
2016-Apr-26 14:31N 53°34' E 008°34'0 0.0
2016-Apr-26 13:31N 53°34' E 008°34'0 0.0
2016-Apr-26 12:31N 53°34' E 008°34'0 0.0
2016-Apr-26 11:31N 53°34' E 008°34'0 0.0
2016-Apr-26 10:28N 53°34' E 008°34'0 0.0
2016-Apr-26 09:31N 53°34' E 008°34'0 0.0
2016-Apr-26 08:31N 53°34' E 008°34'0 0.0
2016-Apr-26 07:31N 53°34' E 008°34'0 0.0
2016-Apr-26 06:31N 53°34' E 008°34'0 0.0
2016-Apr-26 05:31N 53°34' E 008°34'0 0.0
2016-Apr-26 04:28N 53°34' E 008°34'0 0.0
2016-Apr-26 03:31N 53°34' E 008°34'0 0.5
2016-Apr-26 02:33N 53°34' E 008°33'3 2.6
2016-Apr-26 01:33N 53°36' E 008°30'1615.9
2016-Apr-26 00:34N 53°46' E 008°10'1313.2
2016-Apr-25 23:33N 53°52' E 007°50'1312.6
2016-Apr-25 22:33N 53°56' E 007°29'1010.0
2016-Apr-25 21:33N 54°03' E 007°18'0 0.2
2016-Apr-25 20:33N 54°03' E 007°18'1 0.9
2016-Apr-25 19:33N 54°03' E 007°17'1 0.9
2016-Apr-25 18:33N 54°02' E 007°16'1 0.7
2016-Apr-25 17:33N 54°02' E 007°15'1 0.5
2016-Apr-25 16:33N 54°02' E 007°15'2 1.5
2016-Apr-25 15:33N 54°04' E 007°16'0 0.2
2016-Apr-25 14:33N 54°04' E 007°16'1 0.7
2016-Apr-25 13:33N 54°03' E 007°15'9 9.1
2016-Apr-25 12:34N 53°54' E 007°18'1616.1
2016-Apr-25 11:34N 53°50' E 006°52'1616.2
2016-Apr-25 10:33N 53°46' E 006°25'1616.1
2016-Apr-25 09:33N 53°41' E 005°59'1616.2
2016-Apr-25 08:34N 53°35' E 005°34'1616.4
2016-Apr-25 07:33N 53°30' E 005°08'3315.5
2016-Apr-25 05:24N 53°06' E 004°28'1516.6
2016-Apr-25 04:30N 52°53' E 004°17'1716.3
2016-Apr-25 03:29N 52°40' E 003°60'9813.9
2016-Apr-24 20:29N 51°28' E 002°13'1213.4
2016-Apr-24 19:33N 51°16' E 002°06'1515.0
2016-Apr-24 18:34N 51°07' E 001°47'1414.4
2016-Apr-24 17:33N 50°57' E 001°30'5413.5
2016-Apr-24 13:34N 50°22' E 000°25'1614.8
2016-Apr-24 12:31N 50°17' E 000°02'11117.3
2016-Apr-24 06:04N 49°51' W 002°46'915.9
2016-Apr-24 05:32N 49°48' W 002°59'1515.4
2016-Apr-24 04:34N 49°41' W 003°20'  
2016-Apr-21 13:28N 39°43' W 009°50'1415.1
2016-Apr-21 12:33N 39°29' W 009°52'1515.4
2016-Apr-21 11:33N 39°14' W 009°52'1515.4
2016-Apr-21 10:33N 38°58' W 009°52'1515.3
2016-Apr-21 09:33N 38°43' W 009°52'1514.9
2016-Apr-21 08:33N 38°28' W 009°48'1514.5
2016-Apr-21 07:33N 38°14' W 009°43'1515.0
2016-Apr-21 06:33N 37°59' W 009°39'1514.9
2016-Apr-21 05:33N 37°45' W 009°35'22112.9
2016-Apr-20 12:27N 35°59' W 005°33'1111.9
2016-Apr-20 11:34N 36°02' W 005°20'  

Dump ship's entire track history